UIR weather

Quirindi Airport
New South Wales, Australia

Public forecast

Using degrees Celsius for public forecast. Weather courtesy of forecast.io.

Closest aviation weather report (METAR) to Quirindi Airport

Closest report is Tamworth Airport, 29.8 nm (55.2 km) NE. Retrieved 2019/10/16 10:30 UTC (14 minutes ago):

YSTW 161030Z AUTO 19007KT 9999 // NCD 20/15 Q1010 RF000/0006

Closest aviation forecast (TAF) to Quirindi Airport

Forecast is more than 12 hours old.

Closest forecast is Tamworth Airport, 29.8 nm (55.2 km) NE. Retrieved 2019/10/15 18:36 UTC (16 hours ago):

TAF YSTW 151651Z 1518/1612 08005KT CAVOK FM152200 33010KT CAVOK FM160300 33015G25KT 9999 -SHRA NSC FM160800 06012KT 9999 -SHRA NSC PROB30 INTER 1604/1609 VRB18G30KT 2000 TSRA SCT015 SCT080CB